Time;durP1;ratioP1;P1;durP2;ratioP2;P2;SDS_P1;SDS_P2;PMS_P1;PMS_P2;Temp;Humidity;BMP_temperature;BMP_pressure;BME280_temperature;BME280_humidity;BME280_pressure;Samples;Min_cycle;Max_cycle;Signal;HPM_P1;HPM_P2
2020/12/01 00:02:05;;;;;;;76.07;43.73;;;;;;;-0.79;82.30;99576.75;124796;1101;65156;-80
2020/12/01 00:04:31;;;;;;;76.53;43.43;;;;;;;-0.80;82.77;99573.28;124763;1101;65179;-80
2020/12/01 00:06:57;;;;;;;78.17;44.43;;;;;;;-0.81;82.47;99570.70;124755;1102;65124;-81
2020/12/01 00:09:24;;;;;;;71.27;43.90;;;;;;;-0.80;82.45;99569.80;124793;1101;65291;-80
2020/12/01 00:11:50;;;;;;;70.43;42.53;;;;;;;-0.84;82.34;99571.59;124803;1101;65134;-81
2020/12/01 00:14:17;;;;;;;72.50;42.10;;;;;;;-0.87;82.52;99565.52;124814;1102;65146;-82
2020/12/01 00:16:46;;;;;;;73.70;42.65;;;;;;;-0.82;83.21;99571.56;124804;1101;65662;-80
2020/12/01 00:19:13;;;;;;;69.42;41.68;;;;;;;-0.80;82.60;99570.66;124788;1101;65269;-80
2020/12/01 00:21:44;;;;;;;69.47;40.23;;;;;;;-0.83;83.16;99572.46;124766;1101;65213;-81
2020/12/01 00:24:10;;;;;;;65.53;38.60;;;;;;;-0.93;82.27;99575.16;124813;1101;65213;-81
2020/12/01 00:26:37;;;;;;;65.37;40.50;;;;;;;-1.04;82.53;99570.95;124783;1101;65169;-80
2020/12/01 00:29:05;;;;;;;63.80;38.45;;;;;;;-1.11;82.87;99580.59;124794;1101;65080;-81
2020/12/01 00:31:39;;;;;;;66.50;37.10;;;;;;;-1.12;83.08;99584.10;124816;1101;65246;-80
2020/12/01 00:34:07;;;;;;;63.40;37.17;;;;;;;-1.12;83.28;99573.64;124735;1101;65201;-80
2020/12/01 00:36:34;;;;;;;58.27;35.97;;;;;;;-1.21;83.34;99569.38;124800;1101;65236;-81
2020/12/01 00:39:00;;;;;;;61.75;38.55;;;;;;;-1.26;83.27;99572.89;124767;1101;65185;-81
2020/12/01 00:41:27;;;;;;;61.20;37.15;;;;;;;-1.34;83.03;99573.00;124798;1101;65224;-80
2020/12/01 00:43:53;;;;;;;74.53;45.40;;;;;;;-1.36;83.65;99561.68;124813;1101;65227;-80
2020/12/01 00:46:19;;;;;;;81.77;47.83;;;;;;;-1.36;83.04;99567.77;124765;1101;65216;-80
2020/12/01 00:48:46;;;;;;;76.60;47.23;;;;;;;-1.36;82.85;99565.16;124863;1101;65217;-80
2020/12/01 00:51:13;;;;;;;74.97;44.50;;;;;;;-1.39;83.19;99553.88;124854;1101;65352;-81
2020/12/01 00:53:40;;;;;;;68.73;43.00;;;;;;;-1.43;82.76;99557.38;124774;1101;65274;-81
2020/12/01 00:56:06;;;;;;;72.10;40.63;;;;;;;-1.45;82.74;99559.14;124844;1101;65256;-81
2020/12/01 00:58:33;;;;;;;59.43;38.40;;;;;;;-1.48;83.38;99554.80;124792;1101;65313;-80
2020/12/01 01:00:59;;;;;;;64.67;40.75;;;;;;;-1.52;82.93;99555.73;124806;1101;65236;-81
2020/12/01 01:03:26;;;;;;;66.30;38.80;;;;;;;-1.54;82.68;99552.25;124855;1101;65173;-81
2020/12/01 01:05:52;;;;;;;66.03;38.07;;;;;;;-1.59;83.01;99541.83;124775;1101;65208;-81
2020/12/01 01:08:18;;;;;;;69.53;38.30;;;;;;;-1.63;82.89;99547.12;124795;1101;65258;-80
2020/12/01 01:10:45;;;;;;;63.33;39.77;;;;;;;-1.68;83.34;99546.30;124763;1101;65243;-81
2020/12/01 01:13:11;;;;;;;62.17;35.37;;;;;;;-1.73;82.60;99542.86;124851;1101;65281;-81
2020/12/01 01:15:38;;;;;;;60.00;35.53;;;;;;;-1.78;82.96;99535.91;124791;1101;65253;-81
2020/12/01 01:18:04;;;;;;;66.53;37.33;;;;;;;-1.81;83.22;99532.47;124851;1102;65112;-81
2020/12/01 01:20:31;;;;;;;60.67;35.53;;;;;;;-1.81;83.26;99532.47;124835;1101;65166;-81
2020/12/01 01:22:58;;;;;;;58.27;32.83;;;;;;;-1.82;82.89;99536.83;124747;1101;65248;-81
2020/12/01 01:25:25;;;;;;;58.60;33.47;;;;;;;-1.82;82.87;99528.10;124733;1101;65236;-81
2020/12/01 01:27:51;;;;;;;62.35;33.75;;;;;;;-1.84;83.02;99527.27;124715;1101;65137;-81
2020/12/01 01:30:21;;;;;;;50.45;29.80;;;;;;;-1.86;82.53;99524.66;124810;1101;65261;-82
2020/12/01 01:32:47;;;;;;;43.63;27.52;;;;;;;-1.88;82.94;99523.80;124879;1101;65229;-81
2020/12/01 01:35:15;;;;;;;39.73;23.90;;;;;;;-1.89;83.23;99518.61;124729;1101;65223;-80
2020/12/01 01:37:41;;;;;;;36.50;21.40;;;;;;;-1.88;82.80;99521.19;124814;1101;65165;-81
2020/12/01 01:40:17;;;;;;;36.17;21.10;;;;;;;-1.88;83.00;99517.71;124760;1101;65246;-81
2020/12/01 01:42:44;;;;;;;34.57;20.27;;;;;;;-1.90;82.52;99520.33;124790;1101;65150;-81
2020/12/01 01:45:11;;;;;;;32.93;20.50;;;;;;;-1.90;82.57;99524.69;124730;1101;65239;-80
2020/12/01 01:47:38;;;;;;;32.57;20.00;;;;;;;-1.90;82.90;99522.94;124742;1101;65136;-80
2020/12/01 01:50:17;;;;;;;32.27;19.93;;;;;;;-1.89;82.57;99515.99;124787;1101;65590;-80
2020/12/01 01:52:48;;;;;;;;;;;;;;;-1.92;82.71;99513.37;124841;1101;65629;-81
2020/12/01 01:55:21;;;;;;;32.53;18.50;;;;;;;-1.96;82.54;99509.08;124783;1101;65112;-81
2020/12/01 01:57:56;;;;;;;30.03;19.23;;;;;;;-1.97;82.89;99516.05;124808;1101;65613;-81
2020/12/01 02:00:57;;;;;;;36.90;20.35;;;;;;;-1.97;82.23;99504.71;124765;1101;65176;-81
2020/12/01 02:03:46;;;;;;;38.17;23.13;;;;;;;-2.01;82.61;99506.49;124758;1101;65127;-80
2020/12/01 02:06:28;;;;;;;50.63;24.50;;;;;;;-1.99;82.43;99500.38;124825;1101;65154;-80
2020/12/01 02:09:10;;;;;;;40.90;23.20;;;;;;;-2.00;82.44;99510.86;124809;1101;65172;-81
2020/12/01 02:11:40;;;;;;;48.50;26.37;;;;;;;-2.02;82.55;99502.16;124780;1101;65211;-82
2020/12/01 02:14:15;;;;;;;49.30;30.13;;;;;;;-2.04;82.08;99510.00;124779;1102;65194;-80
2020/12/01 02:16:50;;;;;;;53.57;29.30;;;;;;;-2.07;82.65;99501.33;124807;1101;65153;-81
2020/12/01 02:19:21;;;;;;;48.93;27.50;;;;;;;-2.07;82.11;99503.94;124797;1101;65239;-80
2020/12/01 02:21:48;;;;;;;52.73;27.93;;;;;;;-2.08;82.64;99508.30;124821;1101;65209;-79
2020/12/01 02:24:20;;;;;;;45.50;25.95;;;;;;;-2.13;82.79;99510.08;124771;1101;65355;-80
2020/12/01 02:26:50;;;;;;;45.80;25.77;;;;;;;-2.13;82.14;99503.97;124772;1101;65166;-82
2020/12/01 02:29:20;;;;;;;45.63;24.37;;;;;;;-2.12;82.43;99503.11;124847;1102;65156;-80
2020/12/01 02:31:47;;;;;;;51.53;25.27;;;;;;;-2.13;82.88;99497.03;124806;1101;65166;-81
2020/12/01 02:34:16;;;;;;;38.27;20.77;;;;;;;-2.14;82.16;99499.63;124873;1101;65361;-80
2020/12/01 02:36:43;;;;;;;36.83;20.77;;;;;;;-2.15;82.54;99503.13;124784;1101;65185;-80
2020/12/01 02:39:13;;;;;;;38.83;20.40;;;;;;;-2.15;82.11;99498.77;124790;1101;65184;-80
2020/12/01 02:41:39;;;;;;;;;;;;;;;-2.16;82.83;99494.41;124883;1101;65278;-81
2020/12/01 02:44:06;;;;;;;31.80;17.43;;;;;;;-2.17;82.82;99499.66;124787;1101;65236;-81
2020/12/01 02:46:36;;;;;;;30.80;17.77;;;;;;;-2.18;82.46;99496.19;124792;1101;65175;-81
2020/12/01 02:49:07;;;;;;;36.47;20.30;;;;;;;-2.19;82.12;99497.05;124763;1102;65149;-80
2020/12/01 02:51:35;;;;;;;32.00;19.07;;;;;;;-2.18;82.42;99490.11;124879;1101;65240;-80
2020/12/01 02:54:02;;;;;;;36.33;20.00;;;;;;;-2.17;81.53;99491.83;124713;1101;65086;-81
2020/12/01 02:56:28;;;;;;;36.97;22.00;;;;;;;-2.19;81.48;99488.36;124704;1101;65175;-82
2020/12/01 02:58:55;;;;;;;34.60;20.90;;;;;;;-2.20;81.28;99490.11;124782;1101;65162;-81
2020/12/01 03:01:22;;;;;;;31.97;19.77;;;;;;;-2.22;81.83;99489.25;124787;1101;65166;-81
2020/12/01 03:03:49;;;;;;;34.80;19.90;;;;;;;-2.22;81.08;99484.02;124765;1102;65150;-81
2020/12/01 03:06:19;;;;;;;31.00;19.63;;;;;;;-2.23;81.15;99474.47;124789;1101;65194;-81
2020/12/01 03:08:47;;;;;;;46.33;29.23;;;;;;;-2.22;81.60;99478.80;124845;1102;65546;-81
2020/12/01 03:11:13;;;;;;;35.13;25.77;;;;;;;-2.24;81.05;99471.00;124800;1102;65188;-81
2020/12/01 03:13:40;;;;;;;37.65;27.40;;;;;;;-2.24;81.61;99475.33;124799;1101;65166;-80
2020/12/01 03:16:10;;;;;;;34.83;21.97;;;;;;;-2.26;80.93;99474.50;124757;1102;65155;-82
2020/12/01 03:18:38;;;;;;;27.52;17.95;;;;;;;-2.28;80.92;99474.50;124751;1101;66511;-80
2020/12/01 03:21:05;;;;;;;27.07;16.70;;;;;;;-2.28;80.66;99463.20;124719;1103;65179;-80
2020/12/01 03:23:32;;;;;;;27.20;17.70;;;;;;;-2.28;80.77;99473.64;124730;1102;65416;-80
2020/12/01 03:25:59;;;;;;;30.20;17.30;;;;;;;-2.29;80.94;99472.78;124779;1102;65230;-80
2020/12/01 03:28:26;;;;;;;23.80;15.70;;;;;;;-2.29;80.38;99469.27;124739;1101;65243;-80
2020/12/01 03:30:52;;;;;;;27.00;16.30;;;;;;;-2.29;81.18;99477.11;124785;1101;65259;-82
2020/12/01 03:33:20;;;;;;;25.07;16.73;;;;;;;-2.32;80.86;99474.52;124816;1102;65230;-81
2020/12/01 03:35:46;;;;;;;26.27;17.53;;;;;;;-2.35;81.39;99474.55;124596;1103;65166;-82
2020/12/01 03:38:13;;;;;;;29.80;16.80;;;;;;;-2.35;81.46;99475.41;124770;1102;65179;-81
2020/12/01 03:40:40;;;;;;;32.17;18.43;;;;;;;-2.34;80.57;99476.27;124764;1102;65208;-81
2020/12/01 03:43:07;;;;;;;33.07;18.40;;;;;;;-2.31;80.53;99478.88;124803;1101;65249;-81
2020/12/01 03:45:33;;;;;;;26.80;16.15;;;;;;;-2.33;80.78;99478.88;124771;1102;65176;-79
2020/12/01 03:48:00;;;;;;;22.30;16.57;;;;;;;-2.35;80.82;99475.41;124698;1101;65274;-80
2020/12/01 03:50:28;;;;;;;24.80;16.63;;;;;;;-2.37;80.27;99474.58;124699;1101;65159;-81
2020/12/01 03:52:56;;;;;;;24.60;16.77;;;;;;;-2.37;80.30;99477.19;124723;1101;66409;-81
2020/12/01 03:55:25;;;;;;;22.45;16.45;;;;;;;-2.39;80.62;99465.03;124787;1101;65162;-80
2020/12/01 03:57:51;;;;;;;20.00;12.97;;;;;;;-2.38;80.32;99474.58;124787;1102;65187;-80
2020/12/01 04:00:21;;;;;;;24.23;15.53;;;;;;;-2.39;80.63;99465.89;124805;1101;65153;-81
2020/12/01 04:02:48;;;;;;;21.35;14.90;;;;;;;-2.38;80.49;99469.36;124867;1102;65232;-81
2020/12/01 04:05:18;;;;;;;23.37;16.60;;;;;;;-2.40;79.80;99471.96;124805;1101;65156;-81
2020/12/01 04:07:46;;;;;;;24.83;15.20;;;;;;;-2.42;80.34;99463.30;124746;1101;65191;-81
2020/12/01 04:10:15;;;;;;;20.37;15.63;;;;;;;-2.45;80.19;99460.69;124803;1102;65150;-81
2020/12/01 04:12:41;;;;;;;23.37;15.43;;;;;;;-2.47;79.91;99455.50;124851;1102;65124;-82
2020/12/01 04:15:08;;;;;;;22.03;16.20;;;;;;;-2.50;79.80;99458.13;124893;1101;65249;-81
2020/12/01 04:17:35;;;;;;;22.27;15.33;;;;;;;-2.53;79.68;99460.73;124811;1101;65252;-82
2020/12/01 04:20:03;;;;;;;24.03;15.57;;;;;;;-2.54;79.79;99452.94;124827;1102;65242;-81
2020/12/01 04:22:29;;;;;;;21.45;15.20;;;;;;;-2.56;80.46;99447.72;124876;1102;65137;-81
2020/12/01 04:24:55;;;;;;;21.30;15.30;;;;;;;-2.57;80.59;99445.14;124664;1102;65309;-81
2020/12/01 04:27:22;;;;;;;19.33;13.87;;;;;;;-2.60;79.85;99446.02;124552;1101;65166;-82
2020/12/01 04:29:48;;;;;;;25.48;15.80;;;;;;;-2.62;80.25;99446.91;124744;1101;65224;-81
2020/12/01 04:32:15;;;;;;;42.97;32.17;;;;;;;-2.63;80.29;99434.72;124798;1102;65186;-81
2020/12/01 04:34:41;;;;;;;31.00;25.87;;;;;;;-2.66;79.91;99439.11;124761;1101;65157;-81
2020/12/01 04:37:08;;;;;;;37.50;29.95;;;;;;;-2.68;79.27;99443.45;124796;1102;65271;-81
2020/12/01 04:39:35;;;;;;;29.23;20.93;;;;;;;-2.68;80.15;99439.99;124818;1101;65153;-82
2020/12/01 04:42:03;;;;;;;20.53;14.60;;;;;;;-2.69;79.46;99440.84;124701;1101;65255;-81
2020/12/01 04:45:03;;;;;;;21.23;13.87;;;;;;;-2.69;79.37;99439.09;124881;1102;65146;-80
2020/12/01 04:48:09;;;;;;;24.00;15.58;;;;;;;-2.72;79.22;99433.91;124676;1102;65230;-80
2020/12/01 04:50:37;;;;;;;28.13;18.00;;;;;;;-2.75;79.50;99436.54;124808;1102;65162;-80
2020/12/01 04:53:22;;;;;;;21.95;16.20;;;;;;;-2.77;79.60;99426.98;124777;1101;65166;-81
2020/12/01 04:56:13;;;;;;;24.60;17.77;;;;;;;-2.79;79.34;99426.12;124773;1101;65182;-81
2020/12/01 04:58:43;;;;;;;25.13;17.50;;;;;;;-2.81;79.97;99431.37;124804;1101;65185;-80
2020/12/01 05:01:33;;;;;;;25.12;16.97;;;;;;;-2.81;79.99;99433.12;124836;1102;65139;-80
2020/12/01 05:04:16;;;;;;;22.03;15.37;;;;;;;-2.80;79.60;99427.02;124888;1101;65216;-80
2020/12/01 05:07:09;;;;;;;26.57;18.53;;;;;;;-2.80;79.30;99422.66;124799;1101;65133;-81
2020/12/01 05:09:38;;;;;;;28.07;19.37;;;;;;;-2.78;79.47;99414.84;124768;1101;65162;-81
2020/12/01 05:12:20;;;;;;;30.32;21.37;;;;;;;-2.79;79.53;99424.41;124802;1102;65146;-81
2020/12/01 05:14:54;;;;;;;25.53;17.90;;;;;;;-2.80;79.95;99430.48;124791;1101;65162;-80
2020/12/01 05:17:48;;;;;;;26.17;17.10;;;;;;;-2.83;79.94;99420.07;124796;1101;65619;-81
2020/12/01 05:20:14;;;;;;;26.20;17.13;;;;;;;-2.84;79.63;99420.06;124872;1101;65226;-81
2020/12/01 05:22:47;;;;;;;25.40;16.90;;;;;;;-2.85;79.06;99427.03;124746;1101;65224;-82
2020/12/01 05:25:23;;;;;;;27.07;15.87;;;;;;;-2.86;79.22;99425.31;124820;1101;65128;-80
2020/12/01 05:28:01;;;;;;;25.70;15.40;;;;;;;-2.86;79.26;99430.53;124806;1101;65358;-81
2020/12/01 05:30:28;;;;;;;30.95;18.40;;;;;;;-2.86;80.16;99427.92;124858;1101;65242;-81
2020/12/01 05:33:20;;;;;;;30.47;20.93;;;;;;;-2.87;79.27;99423.56;124675;1103;65232;-80
2020/12/01 05:35:59;;;;;;;31.40;19.57;;;;;;;-2.88;79.55;99417.48;124841;1101;65245;-81
2020/12/01 05:38:27;;;;;;;;;;;;;;;-2.89;79.64;99418.38;124852;1102;65246;-81
2020/12/01 05:41:17;;;;;;;37.83;21.00;;;;;;;-2.91;79.29;99414.04;124796;1101;65306;-81
2020/12/01 05:43:44;;;;;;;38.50;24.57;;;;;;;-2.94;79.39;99412.31;124851;1102;65165;-81
2020/12/01 05:46:14;;;;;;;35.80;24.00;;;;;;;-2.96;79.67;99419.27;124782;1101;65089;-81
2020/12/01 05:48:57;;;;;;;37.30;22.23;;;;;;;-2.96;79.78;99416.66;124777;1101;65160;-80
2020/12/01 05:51:43;;;;;;;32.45;21.25;;;;;;;-2.98;80.06;99410.59;124820;1101;65223;-82
2020/12/01 05:54:23;;;;;;;33.50;21.03;;;;;;;-3.01;79.37;99405.39;124813;1101;65201;-81
2020/12/01 05:56:50;;;;;;;;;;;;;;;-3.03;80.31;99409.74;124859;1101;65246;-80
2020/12/01 05:59:19;;;;;;;43.03;25.07;;;;;;;-3.04;80.29;99413.23;124850;1101;65140;-81
2020/12/01 06:01:49;;;;;;;42.27;25.20;;;;;;;-3.02;79.43;99419.31;124786;1102;65244;-81
2020/12/01 06:04:25;;;;;;;43.63;26.43;;;;;;;-3.04;79.27;99414.98;124566;1102;65253;-81
2020/12/01 06:07:12;;;;;;;50.50;30.63;;;;;;;-3.09;80.11;99413.25;124774;1101;65083;-81
2020/12/01 06:09:49;;;;;;;61.47;35.43;;;;;;;-3.10;80.25;99415.89;124802;1101;65248;-80
2020/12/01 06:12:32;;;;;;;60.50;32.93;;;;;;;-3.10;79.85;99416.75;124804;1101;65179;-80
2020/12/01 06:15:03;;;;;;;59.37;34.03;;;;;;;-3.10;80.35;99413.28;124737;1102;65153;-82
2020/12/01 06:17:46;;;;;;;64.67;34.43;;;;;;;-3.09;79.94;99415.00;124772;1101;65214;-81
2020/12/01 06:20:33;;;;;;;63.90;33.50;;;;;;;-3.09;79.54;99412.39;124752;1102;65092;-84
2020/12/01 06:23:24;;;;;;;62.73;34.20;;;;;;;-3.10;79.52;99415.89;124841;1101;65181;-81
2020/12/01 06:26:22;;;;;;;66.65;33.60;;;;;;;-3.10;80.27;99418.50;124824;1101;65236;-82
2020/12/01 06:29:07;;;;;;;71.10;39.17;;;;;;;-3.11;80.13;99417.64;124879;1101;65163;-81
2020/12/01 06:31:48;;;;;;;70.40;38.33;;;;;;;-3.09;79.86;99422.82;124802;1101;65514;-80
2020/12/01 06:34:30;;;;;;;74.63;41.17;;;;;;;-3.09;79.80;99425.43;124727;1101;65143;-80
2020/12/01 06:37:25;;;;;;;81.30;43.37;;;;;;;-3.08;80.29;99421.97;124900;1102;65082;-81
2020/12/01 06:40:12;;;;;;;78.53;43.07;;;;;;;-3.07;80.70;99420.22;124896;1101;65118;-80
2020/12/01 06:42:47;;;;;;;75.50;41.40;;;;;;;-3.07;80.61;99417.61;124826;1102;65335;-82
2020/12/01 06:45:34;;;;;;;69.50;39.40;;;;;;;-3.07;80.17;99418.47;124776;1102;65259;-80
2020/12/01 06:48:06;;;;;;;68.30;40.37;;;;;;;-3.05;80.93;99418.45;124780;1101;65227;-80
2020/12/01 06:50:35;;;;;;;71.00;41.07;;;;;;;-3.03;80.94;99416.70;124783;1101;65124;-80
2020/12/01 06:53:05;;;;;;;76.20;42.85;;;;;;;-3.01;80.26;99410.61;124806;1101;65162;-80
2020/12/01 06:55:40;;;;;;;77.37;43.63;;;;;;;-2.98;80.24;99418.41;124764;1102;65232;-80
2020/12/01 06:58:45;;;;;;;76.60;42.53;;;;;;;-2.95;80.77;99407.09;124777;1101;65370;-80
2020/12/01 07:01:26;;;;;;;75.03;45.17;;;;;;;-2.93;80.63;99403.61;124821;1101;65211;-83
2020/12/01 07:04:08;;;;;;;72.67;44.10;;;;;;;-2.89;80.44;99404.47;124875;1101;65195;-82
2020/12/01 07:06:48;;;;;;;74.23;43.57;;;;;;;-2.87;80.23;99406.20;124917;1101;65320;-81
2020/12/01 07:09:24;;;;;;;80.10;44.23;;;;;;;-2.82;80.81;99406.14;124841;1101;65250;-80
2020/12/01 07:12:18;;;;;;;72.47;42.77;;;;;;;-2.78;80.65;99404.41;124801;1101;65255;-82
2020/12/01 07:14:54;;;;;;;84.07;43.70;;;;;;;-2.73;80.03;99408.71;124781;1101;65160;-81
2020/12/01 07:17:21;;;;;;;75.07;44.30;;;;;;;-2.67;80.80;99403.44;124777;1102;65236;-81
2020/12/01 07:20:19;;;;;;;84.37;47.93;;;;;;;-2.61;80.21;99412.10;124766;1101;65211;-82
2020/12/01 07:23:07;;;;;;;79.07;44.37;;;;;;;-2.54;80.40;99409.44;124727;1101;65250;-82
2020/12/01 07:25:57;;;;;;;77.63;42.00;;;;;;;-2.47;79.68;99410.27;124803;1101;65077;-82
2020/12/01 07:28:32;;;;;;;75.97;46.02;;;;;;;-2.43;79.84;99409.36;124784;1101;65476;-82
2020/12/01 07:31:03;;;;;;;77.50;44.13;;;;;;;-2.39;80.19;99411.08;124889;1101;65333;-82
2020/12/01 07:33:34;;;;;;;79.80;44.40;;;;;;;-2.35;79.78;99412.77;124817;1102;65159;-84
2020/12/01 07:36:28;;;;;;;72.40;42.27;;;;;;;-2.29;79.96;99411.84;124927;1101;65144;-81
2020/12/01 07:39:12;;;;;;;80.00;44.53;;;;;;;-2.24;79.96;99412.67;124849;1101;65155;-82
2020/12/01 07:41:55;;;;;;;76.07;44.37;;;;;;;-2.18;79.59;99410.03;124773;1101;65166;-82
2020/12/01 07:44:47;;;;;;;73.60;42.27;;;;;;;-2.13;79.61;99416.08;124534;1102;65157;-82
2020/12/01 07:47:20;;;;;;;75.35;43.75;;;;;;;-2.06;80.02;99409.04;124891;1101;65260;-80
2020/12/01 07:50:02;;;;;;;75.57;46.83;;;;;;;-2.03;80.08;99415.13;124870;1102;65290;-80
2020/12/01 07:52:38;;;;;;;75.90;44.43;;;;;;;-1.95;79.87;99416.77;124757;1102;65162;-81
2020/12/01 07:55:06;;;;;;;71.10;42.20;;;;;;;-1.89;79.51;99414.13;124836;1101;65248;-81
2020/12/01 07:57:33;;;;;;;71.30;43.43;;;;;;;-1.84;79.32;99407.11;124768;1101;65207;-81
2020/12/01 08:00:01;;;;;;;60.40;39.67;;;;;;;-1.77;79.35;99411.36;124786;1101;65155;-81
2020/12/01 08:02:30;;;;;;;72.43;43.90;;;;;;;-1.70;79.06;99413.04;124778;1101;65633;-81
2020/12/01 08:05:12;;;;;;;68.07;41.20;;;;;;;-1.66;79.83;99406.02;124821;1101;65204;-81
2020/12/01 08:07:38;;;;;;;66.83;44.13;;;;;;;-1.61;79.48;99419.91;124925;1101;65185;-81
2020/12/01 08:10:08;;;;;;;70.00;43.87;;;;;;;-1.54;79.34;99413.73;124814;1101;65303;-81
2020/12/01 08:12:41;;;;;;;66.70;42.13;;;;;;;-1.48;79.43;99424.11;124870;1101;65156;-81
2020/12/01 08:15:15;;;;;;;68.63;41.60;;;;;;;-1.42;79.17;99428.39;124669;1101;65253;-81
2020/12/01 08:17:42;;;;;;;63.40;39.30;;;;;;;-1.35;79.45;99423.08;124845;1101;65089;-81
2020/12/01 08:20:13;;;;;;;57.63;37.27;;;;;;;-1.26;79.26;99432.59;124817;1102;65168;-81
2020/12/01 08:22:46;;;;;;;61.80;37.07;;;;;;;-1.20;78.75;99429.03;124803;1101;65171;-81
2020/12/01 08:25:18;;;;;;;55.65;36.60;;;;;;;-1.17;78.49;99432.45;124803;1101;65165;-81
2020/12/01 08:28:04;;;;;;;58.70;36.83;;;;;;;-1.11;78.49;99428.89;124782;1101;65339;-81
2020/12/01 08:30:49;;;;;;;59.67;38.13;;;;;;;-1.05;79.29;99426.22;124830;1101;65144;-81
2020/12/01 08:33:50;;;;;;;57.90;37.55;;;;;;;-0.98;78.79;99437.45;124820;1101;65159;-81
2020/12/01 08:36:28;;;;;;;55.33;35.17;;;;;;;-0.93;78.33;99433.03;124820;1101;65176;-80
2020/12/01 08:39:24;;;;;;;59.03;37.50;;;;;;;-0.87;78.02;99440.78;124798;1101;65159;-81
2020/12/01 08:42:17;;;;;;;57.17;37.50;;;;;;;-0.81;78.35;99440.72;124825;1101;65320;-81
2020/12/01 08:45:04;;;;;;;57.97;36.90;;;;;;;-0.74;78.14;99437.14;124725;1101;65227;-81
2020/12/01 08:47:31;;;;;;;55.90;35.70;;;;;;;-0.68;78.03;99438.80;124792;1101;65083;-81
2020/12/01 08:49:58;;;;;;;58.23;36.90;;;;;;;-0.66;78.40;99434.39;124793;1101;65156;-81
2020/12/01 08:52:36;;;;;;;55.47;35.57;;;;;;;-0.62;77.92;99429.99;124782;1101;65239;-81
2020/12/01 08:55:57;;;;;;;55.95;35.40;;;;;;;-0.60;78.20;99439.55;124783;1101;65262;-81
2020/12/01 08:58:26;;;;;;;57.50;36.15;;;;;;;-0.54;78.12;99438.59;124496;1104;65250;-81
2020/12/01 09:01:06;;;;;;;51.90;35.65;;;;;;;-0.47;77.89;99443.72;124737;1101;65131;-81
2020/12/01 09:03:36;;;;;;;56.75;35.75;;;;;;;-0.41;78.37;99440.14;124755;1101;65197;-81
2020/12/01 09:06:18;;;;;;;58.60;35.77;;;;;;;-0.34;77.55;99448.75;124779;1101;65626;-81
2020/12/01 09:08:59;;;;;;;53.23;33.03;;;;;;;-0.28;77.52;99444.30;124809;1101;65236;-80
2020/12/01 09:14:42;;;;;;;50.10;32.77;;;;;;;-0.15;77.22;99433.62;124803;1101;65223;-81
2020/12/01 09:17:37;;;;;;;52.73;33.23;;;;;;;-0.09;77.51;99433.52;124819;1101;65185;-82
2020/12/01 09:20:46;;;;;;;48.90;31.15;;;;;;;-0.03;76.39;99433.41;124814;1101;65227;-80
2020/12/01 09:23:19;;;;;;;49.60;30.67;;;;;;;0.00;76.86;99436.00;124764;1102;65144;-80
2020/12/01 09:25:49;;;;;;;48.23;29.27;;;;;;;0.06;76.48;99437.64;124781;1101;65159;-80
2020/12/01 09:28:19;;;;;;;48.57;30.97;;;;;;;0.13;76.86;99426.14;124937;1101;65211;-81
2020/12/01 09:30:46;;;;;;;48.77;31.40;;;;;;;0.21;77.09;99433.00;124834;1101;65134;-80
2020/12/01 09:33:16;;;;;;;47.90;30.47;;;;;;;0.30;76.34;99431.09;124785;1102;65140;-80
2020/12/01 09:35:43;;;;;;;47.27;29.40;;;;;;;0.34;76.32;99417.91;124745;1101;65355;-81
2020/12/01 09:38:10;;;;;;;45.23;28.57;;;;;;;0.41;76.21;99426.52;124805;1101;65230;-81
2020/12/01 09:40:38;;;;;;;45.23;29.43;;;;;;;0.44;75.92;99426.45;124796;1101;65157;-82
2020/12/01 09:43:22;;;;;;;43.20;29.25;;;;;;;0.48;75.62;99424.66;124803;1101;65156;-83
2020/12/01 09:45:51;;;;;;;41.70;27.50;;;;;;;0.54;76.18;99417.52;124816;1102;65150;-83
2020/12/01 09:48:31;;;;;;;43.90;28.80;;;;;;;0.59;76.00;99412.19;124774;1101;65307;-82
2020/12/01 09:50:59;;;;;;;45.87;29.30;;;;;;;0.65;76.09;99414.67;124836;1103;65281;-82
2020/12/01 09:53:49;;;;;;;51.17;29.33;;;;;;;0.72;75.43;99410.19;124854;1101;65124;-81
2020/12/01 09:56:34;;;;;;;46.70;29.83;;;;;;;0.79;76.04;99412.66;124812;1101;65086;-82
2020/12/01 10:05:05;;;;;;;45.15;28.70;;;;;;;0.96;74.94;99404.42;124821;1101;65203;-82
2020/12/01 10:10:09;;;;;;;44.77;27.87;;;;;;;1.08;75.28;99404.17;124773;1101;65157;-83
2020/12/01 10:21:31;;;;;;;39.47;24.53;;;;;;;1.30;74.66;99395.80;124804;1102;65245;-81
2020/12/01 10:36:22;;;;;;;30.10;21.77;;;;;;;1.63;72.46;99373.11;124868;1101;65175;-81
2020/12/01 10:38:50;;;;;;;32.75;20.85;;;;;;;1.69;72.87;99370.36;124897;1102;65182;-83
2020/12/01 10:41:17;;;;;;;36.33;21.87;;;;;;;1.74;72.92;99373.73;124820;1101;65229;-81
2020/12/01 10:43:44;;;;;;;31.33;21.17;;;;;;;1.81;72.52;99365.68;124857;1101;65160;-82
2020/12/01 10:46:12;;;;;;;32.87;21.93;;;;;;;1.87;72.44;99376.03;124857;1102;65361;-81
2020/12/01 10:48:39;;;;;;;33.53;21.37;;;;;;;1.92;72.21;99366.27;124763;1101;65573;-83
2020/12/01 10:51:06;;;;;;;28.07;19.60;;;;;;;1.96;71.90;99373.18;124828;1102;65211;-81
2020/12/01 10:53:33;;;;;;;31.50;19.93;;;;;;;1.96;71.61;99371.41;124744;1101;65310;-81
2020/12/01 10:55:59;;;;;;;28.43;18.80;;;;;;;2.01;71.59;99375.70;124839;1101;65233;-81
2020/12/01 10:58:25;;;;;;;28.35;19.65;;;;;;;2.07;71.35;99373.75;124795;1101;65175;-81
2020/12/01 11:00:52;;;;;;;32.95;20.70;;;;;;;2.16;71.14;99381.41;124861;1102;65108;-80
2020/12/01 11:03:18;;;;;;;33.67;20.33;;;;;;;2.20;71.50;99374.30;124825;1102;65163;-83
2020/12/01 11:05:45;;;;;;;29.77;20.40;;;;;;;2.22;71.05;99374.27;124764;1101;65226;-81
2020/12/01 11:08:12;;;;;;;31.33;19.97;;;;;;;2.26;71.18;99376.75;124798;1102;65252;-81
2020/12/01 11:10:39;;;;;;;24.83;17.63;;;;;;;2.32;70.84;99371.34;124718;1102;65179;-81
2020/12/01 11:13:08;;;;;;;27.63;18.13;;;;;;;2.37;70.18;99379.08;124795;1101;65156;-80
2020/12/01 11:15:35;;;;;;;27.30;17.23;;;;;;;2.37;69.87;99376.45;124770;1101;65181;-81
2020/12/01 11:18:01;;;;;;;28.73;17.83;;;;;;;2.41;70.03;99372.84;124741;1101;65175;-81
2020/12/01 11:20:27;;;;;;;26.50;16.95;;;;;;;2.45;70.14;99377.13;124811;1101;65208;-82
2020/12/01 11:22:54;;;;;;;26.25;15.55;;;;;;;2.50;70.14;99375.23;124788;1101;65202;-81
2020/12/01 11:25:21;;;;;;;24.70;15.77;;;;;;;2.54;69.86;99371.59;124806;1101;65136;-80
2020/12/01 11:27:48;;;;;;;22.50;14.70;;;;;;;2.56;70.26;99369.80;124773;1101;65141;-81
2020/12/01 11:30:18;;;;;;;20.87;13.87;;;;;;;2.59;69.38;99368.84;124771;1101;65185;-81
2020/12/01 11:32:44;;;;;;;;;;;;;;;2.59;69.50;99366.22;124796;1101;65165;-80
2020/12/01 11:35:12;;;;;;;22.67;14.23;;;;;;;2.59;69.51;99363.58;124819;1101;65249;-80
2020/12/01 11:37:39;;;;;;;28.30;16.60;;;;;;;2.58;69.53;99362.73;124879;1101;65165;-80
2020/12/01 11:40:07;;;;;;;25.05;15.35;;;;;;;2.59;69.25;99360.95;124790;1102;65188;-81
2020/12/01 11:42:34;;;;;;;26.43;15.83;;;;;;;2.58;69.50;99361.84;124784;1101;65287;-81
2020/12/01 11:45:01;;;;;;;30.03;19.67;;;;;;;2.55;68.96;99349.63;124835;1101;65154;-81
2020/12/01 11:47:27;;;;;;;21.73;14.87;;;;;;;2.54;69.36;99349.70;124825;1101;65220;-82
2020/12/01 11:49:54;;;;;;;25.00;14.87;;;;;;;2.53;69.16;99351.47;124842;1101;65099;-81
2020/12/01 11:52:20;;;;;;;18.17;13.45;;;;;;;2.53;68.97;99356.73;124799;1101;65235;-81
2020/12/01 11:54:46;;;;;;;22.93;15.70;;;;;;;2.52;69.28;99346.23;124786;1101;65233;-81
2020/12/01 11:57:13;;;;;;;24.80;15.87;;;;;;;2.53;68.46;99350.61;124794;1101;65121;-85
2020/12/01 11:59:39;;;;;;;20.73;14.00;;;;;;;2.50;69.12;99348.05;124866;1101;65201;-81
2020/12/01 12:02:05;;;;;;;24.33;16.13;;;;;;;2.51;69.11;99344.53;124806;1101;65226;-82
2020/12/01 12:04:32;;;;;;;20.80;14.57;;;;;;;2.51;68.64;99348.02;124781;1101;65197;-81
2020/12/01 12:07:00;;;;;;;26.70;16.80;;;;;;;2.51;68.33;99344.53;124779;1102;65185;-81
2020/12/01 12:09:27;;;;;;;21.93;14.57;;;;;;;2.49;68.13;99347.19;124807;1101;65233;-80
2020/12/01 12:11:53;;;;;;;24.80;16.03;;;;;;;2.50;68.54;99337.52;124854;1101;65092;-81